Terminal Aerodrome Forecast
Issued by NWS Charleston, WV

Current Version | Previous Version | Text Only | Print | Product List | Glossary Off
Versions: 1 2 3 4 5 6 7 8 9 10 11 12 13 14 15 16 17 18 19 20 21

000
FTUS41 KRLX 240700 AAA
TAFHTS
TAF AMD
KHTS 240721Z 2407/2506 20012G22KT 6SM -RA BR BKN035 BKN060
     FM241600 20018G31KT P6SM BKN040
     FM241800 22022G38KT P6SM BKN040
     FM242200 23017G28KT P6SM BKN035=

USA.gov is the U.S. government's official web portal to all federal, state and local government web resources and services.